CheckWX is a tool to help pilots better visualize weather data.  It is not intended as a substitute for an official pre-flight weather briefing.

07:55:21 UTC

RCMQ TAF
Taichung Ching Chuang Kang Airport
Taichung City, Taiwan
TAF RCMQ 051100Z 0512/0612 18008KT 9999 FEW012 SCT025 BKN200 TX33/0606Z TN26/0521Z BECMG 0518/0520 FEW012 SCT100 BECMG 0523/0601 FEW012 SCT020 BKN200 BECMG 0602/0604 24012KT FEW012 BKN020 BKN200 BECMG 0606/0608 FEW012 SCT025 BKN200

Jul-5@
12:00 UTC

Jul-5 @ 12:00 UTC

Jul-5@
18:00 UTC

Jul-5 @ 18:00 UTC

TAF RCMQ 051100Z 0512/0612 18008KT 9999 FEW012 SCT025 BKN200 TX33/0606Z TN26/0521Z

Expired

Wind
  • 180° at 8 KTS
Cloud Levels
  • Few at 1,200' AGL
  • Scattered at 2,500' AGL
  • Broken at 20,000' AGL

Jul-5@
18:00 UTC

Jul-5 @ 18:00 UTC

Jul-5@
23:00 UTC

Jul-5 @ 23:00 UTC

BECMG 0518/0520 FEW012 SCT100

Expired

Wind
  • 180° at 8 KTS
Cloud Levels
  • Few at 1,200' AGL
  • Scattered at 10,000' AGL

Jul-5@
23:00 UTC

Jul-5 @ 23:00 UTC

Jul-6@
02:00 UTC

Jul-6 @ 02:00 UTC

BECMG 0523/0601 FEW012 SCT020 BKN200

Expired

Wind
  • 180° at 8 KTS
Cloud Levels
  • Few at 1,200' AGL
  • Scattered at 2,000' AGL
  • Broken at 20,000' AGL

Jul-6@
02:00 UTC

Jul-6 @ 02:00 UTC

Jul-6@
06:00 UTC

Jul-6 @ 06:00 UTC

BECMG 0602/0604 24012KT FEW012 BKN020 BKN200

Expired

Wind
  • 240° at 12 KTS
Cloud Levels
  • Few at 1,200' AGL
  • Broken at 2,000' AGL
  • Broken at 20,000' AGL

Jul-6@
06:00 UTC

Jul-6 @ 06:00 UTC

Jul-6@
12:00 UTC

Jul-6 @ 12:00 UTC

BECMG 0606/0608 FEW012 SCT025 BKN200

Becoming

Becoming Conditions expected by Mon, Jul 6, 2020 @ 08:00 UTC

Wind
  • 240° at 12 KTS
Cloud Levels
  • Few at 1,200' AGL
  • Scattered at 2,500' AGL
  • Broken at 20,000' AGL